• Join FlightAware (Why Join?)
  • Login
  • US Flag 
11:54AM EDT


 

Airport Tracker/Info


-or-


 

Live Flight TrackerFlight Track Log ✈ UPS1191 ✈ 30-Apr-2012 ✈ KPHL - KRFD

Flight Track Log - Related Links

Times and Time Zones

All times are in EDT time to prevent confusion due to time zone crossing. See the UPS1191 flight status page for this flight to view local times or setup timezone preferences in your user account.

Time Position Orientation Groundspeed Altitude Reporting Facility
EDT Latitude Longitude Course Direction KTS MPH feet Rate Location/Type
10:43PM 39.8744 -75.2277 73° East 163 188 400  Level FlightAware ADS-B
10:43PM 39.8752 -75.2243 66° East 166 191 600 3,360 Climbing FlightAware ADS-B
10:43PM 39.8790 -75.2130 64° Northeast 172 198 1,300 2,400 Climbing FlightAware ADS-B
10:44PM 39.8847 -75.1977 63° Northeast 197 227 1,700 1,620 Climbing FlightAware ADS-B
10:44PM 39.8873 -75.1911 57° Northeast 204 235 1,900 1,680 Climbing FlightAware ADS-B
10:44PM 39.8914 -75.1830 53° Northeast 217 250 2,100 1,080 Climbing FlightAware ADS-B
10:44PM 39.8941 -75.1784 47° Northeast 225 259 2,100 720 Level FlightAware ADS-B
10:44PM 39.8966 -75.1749 42° Northeast 231 266 2,200 2,220 Climbing FlightAware ADS-B
10:44PM 39.8998 -75.1711 34° Northeast 234 269 2,400 2,640 Climbing FlightAware ADS-B
10:44PM 39.9043 -75.1671 27° Northeast 236 272 2,600 2,640 Climbing FlightAware ADS-B
10:44PM 39.9086 -75.1642 20° North 238 274 2,800 2,220 Climbing FlightAware ADS-B
10:44PM 39.9121 -75.1625 12° North 239 275 2,900 2,220 Climbing FlightAware ADS-B
10:44PM 39.9163 -75.1613 North 239 275 3,100 3,000 Climbing FlightAware ADS-B
10:44PM 39.9218 -75.1606 357° North 238 274 3,300 2,220 Climbing FlightAware ADS-B
10:44PM 39.9251 -75.1608 353° North 238 274 3,400 1,680 Climbing FlightAware ADS-B
10:44PM 39.9284 -75.1613 346° North 238 274 3,500 3,000 Climbing FlightAware ADS-B
10:45PM 39.9319 -75.1624 341° North 237 273 3,700 2,220 Climbing FlightAware ADS-B
10:45PM 39.9369 -75.1647 331° Northwest 237 273 3,800 1,980 Climbing FlightAware ADS-B
10:45PM 39.9416 -75.1681 325° Northwest 239 275 4,000 2,220 Climbing FlightAware ADS-B
10:45PM 39.9446 -75.1708 320° Northwest 242 278 4,100 1,500 Climbing FlightAware ADS-B
10:45PM 39.9486 -75.1752 315° West 246 283 4,200 1,680 Climbing FlightAware ADS-B
10:45PM 39.9514 -75.1788 312° West 249 287 4,300 1,620 Climbing FlightAware ADS-B
10:45PM 39.9569 -75.1869 310° West 256 295 4,500 2,340 Climbing FlightAware ADS-B
10:45PM 39.9686 -75.2050 312° West 263 303 5,200 2,820 Climbing FlightAware ADS-B
10:45PM 39.9722 -75.2103 313° West 267 307 5,400 2,460 Climbing FlightAware ADS-B
10:45PM 39.9792 -75.2200 315° West 271 312 5,700 2,700 Climbing FlightAware ADS-B
10:46PM 39.9938 -75.2391 315° West 276 318 6,500 3,120 Climbing FlightAware ADS-B
10:46PM 40.0101 -75.2606 314° West 278 320 7,500 3,240 Climbing FlightAware ADS-B
10:46PM 40.0235 -75.2787 313° West 279 321 8,300 3,060 Climbing FlightAware ADS-B
10:47PM 40.0369 -75.2973 313° West 279 321 9,100 3,180 Climbing FlightAware ADS-B
10:47PM 40.0475 -75.3120 313° West 279 321 9,800 2,400 Climbing FlightAware ADS-B
10:47PM 40.0751 -75.3510 313° West 298 343 10,800 1,620 Climbing FlightAware ADS-B
10:48PM 40.1056 -75.3940 313° West 327 376 11,500 1,620 Climbing FlightAware ADS-B
10:48PM 40.1378 -75.4394 313° West 343 395 12,500 1,260 Climbing FlightAware ADS-B
10:49PM 40.1709 -75.4864 313° West 348 400 12,800 660 Climbing FlightAware ADS-B
10:49PM 40.2043 -75.5338 312° West 349 402 13,200 1,620 Climbing FlightAware ADS-B
10:50PM 40.2377 -75.5818 311° West 350 403 14,500 2,520 Climbing FlightAware ADS-B
10:50PM 40.2701 -75.6311 311° West 353 406 15,800 2,400 Climbing FlightAware ADS-B
10:51PM 40.3027 -75.6810 311° West 357 411 16,900 2,160 Climbing FlightAware ADS-B
10:51PM 40.3358 -75.7312 311° West 360 414 18,000 1,980 Climbing FlightAware ADS-B
10:52PM 40.3701 -75.7828 311° West 364 419 19,000 1,740 Climbing FlightAware ADS-B
10:52PM 40.4043 -75.8346 310° West 371 427 19,800 1,500 Climbing FlightAware ADS-B
10:53PM 40.4226 -75.8629 303° West 373 429 20,200 1,380 Climbing FlightAware ADS-B
10:53PM 40.4347 -75.8878 295° West 374 430 20,500 1,380 Climbing FlightAware ADS-B
10:53PM 40.4402 -75.9035 290° West 375 432 20,700 1,500 Climbing FlightAware ADS-B
10:53PM 40.4430 -75.9138 285° West 375 432 20,800 1,320 Climbing FlightAware ADS-B
10:53PM 40.4513 -75.9542 282° West 379 436 21,200 1,200 Climbing FlightAware ADS-B
10:54PM 40.4622 -76.0230 282° West 386 444 21,800 1,320 Climbing FlightAware ADS-B
10:54PM 40.4731 -76.0928 282° West 391 450 22,600 1,500 Climbing FlightAware ADS-B
10:55PM 40.4842 -76.1627 282° West 395 455 23,300 1,380 Climbing FlightAware ADS-B
10:55PM 40.4962 -76.2372 282° West 400 460 24,000 1,320 Climbing FlightAware ADS-B
10:56PM 40.5079 -76.3103 282° West 407 468 24,700 1,320 Climbing FlightAware ADS-B
10:56PM 40.5200 -76.3866 281° West 410 472 25,400 1,320 Climbing FlightAware ADS-B
10:57PM 40.5311 -76.4611 280° West 416 479 26,100 1,380 Climbing FlightAware ADS-B
10:57PM 40.5415 -76.5362 280° West 421 484 26,800 1,260 Climbing FlightAware ADS-B
10:58PM 40.5520 -76.6136 280° West 429 494 27,400 1,140 Climbing FlightAware ADS-B
10:58PM 40.5625 -76.6919 280° West 436 502 28,000 1,140 Climbing FlightAware ADS-B
10:59PM 40.5735 -76.7729 280° West 442 509 28,600 1,200 Climbing FlightAware ADS-B
10:59PM 40.5854 -76.8619 280° West 447 514 29,300 1,260 Climbing FlightAware ADS-B
11:00PM 40.5966 -76.9452 280° West 449 517 30,000 1,560 Climbing FlightAware ADS-B
11:00PM 40.6075 -77.0264 280° West 444 511 30,900 1,860 Climbing FlightAware ADS-B
11:01PM 40.6180 -77.1057 280° West 437 503 31,900 1,980 Climbing FlightAware ADS-B
11:01PM 40.6289 -77.1879 280° West 431 496 33,000 1,920 Climbing FlightAware ADS-B
11:02PM 40.6391 -77.2657 280° West 428 493 33,900 1,080 Climbing FlightAware ADS-B
11:02PM 40.6493 -77.3436 280° West 425 489 34,100 180 Climbing FlightAware ADS-B
11:03PM 40.6591 -77.4196 280° West 424 488 34,100  Level FlightAware ADS-B
11:04PM 40.6743 -77.5368 280° West 424 488 34,100  Level FlightAware ADS-B
11:04PM 40.6867 -77.6329 280° West 422 486 34,100 540 Level FlightAware ADS-B
11:05PM 40.6977 -77.7185 280° West 422 486 34,800 1,380 Climbing FlightAware ADS-B
11:06PM 40.7123 -77.8340 277° West 409 471 36,000 960 Climbing FlightAware ADS-B
11:06PM 40.7197 -77.9092 279° West 422 486 36,100 60 Climbing Cleveland Center
11:07PM 40.7375 -78.0539 279° West 410 472 36,100  Level Cleveland Center
11:08PM 40.7553 -78.1983 279° West 410 472 36,100  Level Cleveland Center
11:09PM 40.7728 -78.3458 279° West 410 472 36,100  Level Cleveland Center
11:10PM 40.7903 -78.4961 280° West 410 472 36,100  Level Cleveland Center
11:11PM 40.8094 -78.6436 280° West 410 472 36,100  Level Cleveland Center
11:12PM 40.8286 -78.7939 280° West 410 472 36,100  Level Cleveland Center
11:13PM 40.8450 -78.9114 278° West 410 472 36,100  Level Cleveland Center
11:14PM 40.8642 -79.0842 279° West 404 465 36,100  Level Cleveland Center
11:15PM 40.8825 -79.2319 279° West 409 471 36,100  Level Cleveland Center
11:16PM 40.8989 -79.3744 278° West 409 471 36,100  Level Cleveland Center
11:17PM 40.9147 -79.5197 278° West 404 465 36,100  Level Cleveland Center
11:18PM 40.9306 -79.6625 278° West 404 465 36,100  Level Cleveland Center
11:19PM 40.9464 -79.8050 278° West 399 459 36,100  Level Cleveland Center
11:20PM 40.9619 -79.9481 278° West 399 459 36,100  Level Cleveland Center
11:21PM 40.9772 -80.0936 278° West 399 459 36,100  Level Cleveland Center
11:22PM 40.9922 -80.2367 280° West 404 465 36,100  Level Cleveland Center
11:23PM 41.0114 -80.3822 284° West 404 465 36,100  Level Cleveland Center
11:24PM 41.0386 -80.5253 283° West 404 465 36,100  Level Cleveland Center
11:25PM 41.0636 -80.6683 282° West 404 465 36,100  Level Cleveland Center
11:26PM 41.0864 -80.8117 283° West 404 465 36,100  Level Cleveland Center
11:27PM 41.1108 -80.9553 282° West 404 465 36,100  Level Cleveland Center
11:28PM 41.1314 -81.0875 283° West 404 465 36,100  Level Cleveland Center
11:29PM 41.1556 -81.2283 283° West 409 471 36,100  Level Cleveland Center
11:30PM 41.1797 -81.3722 283° West 409 471 36,100  Level Cleveland Center
11:31PM 41.2078 -81.5325 283° West 404 465 36,100  Level Cleveland Center
11:32PM 41.2333 -81.6764 282° West 409 471 36,100  Level Cleveland Center
11:33PM 41.2569 -81.8233 282° West 409 471 36,100  Level Cleveland Center
11:34PM 41.2803 -81.9675 281° West 409 471 36,100  Level Cleveland Center
11:35PM 41.3014 -82.1117 281° West 409 471 36,100  Level Cleveland Center
11:36PM 41.3206 -82.2447 283° West 409 471 36,100  Level Cleveland Center
11:37PM 41.3453 -82.3919 281° West 409 471 36,100  Level Cleveland Center
11:38PM 41.3658 -82.5336 283° West 409 471 36,100  Level Cleveland Center
11:39PM 41.3906 -82.6783 281° West 409 471 36,100  Level Cleveland Center
11:40PM 41.4128 -82.8258 281° West 404 465 36,100  Level Cleveland Center
11:41PM 41.4364 -82.9844 282° West 404 465 36,100  Level Cleveland Center
11:42PM 41.4606 -83.1322 282° West 409 471 36,100 -60 Level Cleveland Center
11:43PM 41.4822 -83.2744 281° West 409 471 36,000 -60 Descending Cleveland Center
11:44PM 41.5036 -83.4225 280° West 409 471 36,000  Level Cleveland Center
11:45PM 41.5228 -83.5675 282° West 409 471 36,000  Level Cleveland Center
11:46PM 41.5461 -83.7156 280° West 409 471 36,000  Level Cleveland Center
11:47PM 41.5650 -83.8608 282° West 409 471 36,000  Level Cleveland Center
11:48PM 41.5878 -84.0064 280° West 404 465 36,000  Level Cleveland Center
11:49PM 41.6081 -84.1575 280° West 404 465 36,000  Level Cleveland Center
11:50PM 41.6250 -84.2864 281° West 404 465 36,000  Level Cleveland Center
11:51PM 41.6453 -84.4292 280° West 399 459 36,000  Level Cleveland Center
11:52PM 41.6633 -84.5722 282° West 390 449 36,000  Level Cleveland Center
11:54PM 41.7106 -84.8711 280° West 386 444 36,100  Climbing Chicago Center
11:55PM 41.7286 -85.0144 280° West 386 444 36,100  Level Chicago Center
11:56PM 41.7489 -85.1692 279° West 386 444 36,100 -60 Level Chicago Center
11:57PM 41.7667 -85.3128 280° West 391 450 36,000 -840 Descending Chicago Center
11:58PM 41.7864 -85.4619 280° West 391 450 34,500 -960 Descending Chicago Center
11:59PM 41.8056 -85.6028 279° West 396 456 34,100 -240 Descending Chicago Center
12:00AM 41.8231 -85.7553 279° West 407 468 34,100  Level Chicago Center
12:01AM 41.8397 -85.8936 280° West 412 474 34,100  Level Chicago Center
12:02AM 41.8589 -86.0431 279° West 417 480 34,100  Level Chicago Center
12:03AM 41.8778 -86.1983 282° West 417 480 34,100  Level Chicago Center
12:04AM 41.9053 -86.3672 277° West 422 486 34,100  Level Chicago Center
12:05AM 41.9194 -86.5203 280° West 427 491 34,100 -60 Level Chicago Center
12:06AM 41.9400 -86.6756 279° West 427 491 34,000 -1,080 Descending Chicago Center
12:07AM 41.9581 -86.8311 280° West 427 491 32,000 -2,400 Descending Chicago Center
12:08AM 41.9781 -86.9842 278° West 427 491 29,200 -3,000 Descending Chicago Center
12:09AM 41.9933 -87.1317 280° West 422 486 26,000 -2,580 Descending Chicago Center
12:10AM 42.0131 -87.2875 279° West 427 491 24,100 -1,020 Descending Chicago Center
12:11AM 42.0325 -87.4489 278° West 427 491 24,000 -60 Descending Chicago Center
12:12AM 42.0497 -87.6078 279° West 427 491 24,000  Level Chicago Center
12:13AM 42.0686 -87.7639 278° West 427 491 24,000 -1,320 Level Chicago Center
12:14AM 42.0853 -87.9258 279° West 427 491 21,400 -2,700 Descending Chicago Center
12:15AM 42.1036 -88.0764 277° West 427 491 18,600 -2,640 Descending Chicago Center
12:16AM 42.1178 -88.2247 281° West 422 486 16,200 -1,320 Descending Chicago Center
12:17AM 42.1356 -88.3531 279° West 403 464 16,000 -420 Descending Chicago Center
12:18AM 42.1514 -88.4956 276° West 396 456 15,400 -1,680 Descending Chicago Center
12:19AM 42.1628 -88.6383 278° West 391 450 12,700 -2,220 Descending Chicago Center
12:20AM 42.1761 -88.7728 277° West 385 443 11,000 -1,500 Descending Chicago Center
12:21AM 42.1869 -88.8847 220° Southwest 317 365 9,800 -1,860 Descending Chicago Center
12:22AM 42.1331 -88.9467 202° Southwest 273 314 7,300 -2,280 Descending Chicago Center
12:23AM 42.0747 -88.9778 222° Southwest 287 330 5,300 -2,220 Descending Chicago Center
12:24AM 42.0144 -89.0508 306° West 282 325 2,900 -1,380 Descending Chicago Center
12:25AM 42.0458 -89.1094 360° North 230 265 2,600 -240 Descending Chicago Center
12:26AM 42.0897 -89.1092 358° North 205 236 2,500 -240 Descending Chicago Center
12:27AM 42.1481 -89.1119 360° North 194 223 2,200 6,720 Descending Chicago Center
12:28AM 42.2003 -89.1117 360° North 194 223 16,000 13,800 Climbing Chicago Center